createdAt,value
2023-03-26T00:01:39.596Z,6.96
2023-03-26T00:03:53.757Z,6.76
2023-03-26T00:06:09.828Z,6.71
2023-03-26T00:08:18.152Z,6.62
2023-03-26T00:10:26.461Z,6.62
2023-03-26T00:12:34.363Z,6.63
2023-03-26T00:14:42.447Z,6.61
2023-03-26T00:16:50.784Z,6.71
2023-03-26T00:18:59.992Z,6.58
2023-03-26T00:21:11.181Z,6.42
2023-03-26T00:23:19.177Z,6.25
2023-03-26T00:25:27.099Z,6.22
2023-03-26T00:27:36.178Z,6.51
2023-03-26T00:29:44.022Z,6.44
2023-03-26T00:31:52.095Z,6.50
2023-03-26T00:34:14.021Z,6.49
2023-03-26T00:36:27.009Z,6.66
2023-03-26T00:38:39.377Z,6.72
2023-03-26T00:40:48.374Z,6.77
2023-03-26T00:42:56.606Z,6.83
2023-03-26T00:45:04.679Z,6.97
2023-03-26T00:47:13.439Z,6.78
2023-03-26T00:49:21.944Z,6.73
2023-03-26T00:51:34.241Z,6.68
2023-03-26T00:53:42.592Z,6.69
2023-03-26T00:55:51.313Z,6.61
2023-03-26T00:57:59.851Z,6.54
2023-03-26T01:00:17.092Z,6.46
2023-03-26T01:02:25.467Z,6.44
2023-03-26T01:04:37.749Z,6.53
2023-03-26T01:06:49.030Z,6.44
2023-03-26T01:09:00.513Z,6.54
2023-03-26T01:11:14.501Z,6.53
2023-03-26T01:13:26.791Z,6.42
2023-03-26T01:15:37.498Z,6.27
2023-03-26T01:17:46.316Z,6.33
2023-03-26T01:20:05.908Z,6.43
2023-03-26T01:22:20.907Z,6.46
2023-03-26T01:24:32.051Z,6.33
2023-03-26T01:27:24.633Z,6.33
2023-03-26T01:29:39.696Z,6.19
2023-03-26T01:31:55.690Z,6.21
2023-03-26T01:34:14.126Z,6.38
2023-03-26T01:36:28.377Z,6.24
2023-03-26T01:38:46.976Z,6.35
2023-03-26T01:41:03.751Z,6.44
2023-03-26T01:43:16.096Z,6.43
2023-03-26T01:45:28.648Z,6.43
2023-03-26T01:47:39.814Z,6.37
2023-03-26T01:49:48.837Z,6.35
2023-03-26T01:51:58.272Z,6.35
2023-03-26T01:54:10.196Z,6.33
2023-03-26T01:56:29.430Z,6.27
2023-03-26T01:58:44.555Z,6.25
2023-03-26T02:01:02.240Z,6.39
2023-03-26T02:03:24.924Z,6.31
2023-03-26T02:05:38.101Z,6.26
2023-03-26T02:07:51.301Z,6.38
2023-03-26T02:10:20.712Z,6.40
2023-03-26T02:12:33.291Z,6.49
2023-03-26T02:14:42.642Z,6.35
2023-03-26T02:16:51.633Z,6.40
2023-03-26T02:18:59.467Z,6.43
2023-03-26T02:21:10.272Z,6.46
2023-03-26T02:23:20.084Z,6.47
2023-03-26T02:25:28.678Z,6.55
2023-03-26T02:27:43.694Z,6.56
2023-03-26T02:29:53.120Z,6.51
2023-03-26T02:32:05.257Z,6.67
2023-03-26T02:34:13.465Z,6.65
2023-03-26T02:36:28.655Z,6.44
2023-03-26T02:38:40.457Z,6.50
2023-03-26T02:40:48.784Z,6.48
2023-03-26T02:43:00.992Z,6.56
2023-03-26T02:45:11.758Z,6.55
2023-03-26T02:47:38.393Z,6.52
2023-03-26T02:50:24.675Z,6.55
2023-03-26T02:52:55.733Z,6.51
2023-03-26T02:55:04.126Z,6.53
2023-03-26T02:57:13.205Z,6.53
2023-03-26T02:59:46.546Z,6.39
2023-03-26T03:02:23.006Z,6.45
2023-03-26T03:04:31.366Z,6.48
2023-03-26T03:06:40.713Z,6.56
2023-03-26T03:08:50.201Z,6.44
2023-03-26T03:11:02.285Z,6.47
2023-03-26T03:13:28.916Z,6.52
2023-03-26T03:15:39.861Z,6.42
2023-03-26T03:17:48.123Z,6.40
2023-03-26T03:19:56.559Z,6.58
2023-03-26T03:22:04.509Z,6.48
2023-03-26T03:24:18.628Z,6.61
2023-03-26T03:26:30.881Z,6.46
2023-03-26T03:28:45.297Z,6.43
2023-03-26T03:30:59.338Z,6.38
2023-03-26T03:33:13.303Z,6.50
2023-03-26T03:35:21.871Z,6.52
2023-03-26T03:37:34.649Z,6.43
2023-03-26T03:39:42.955Z,6.42
2023-03-26T03:41:52.561Z,6.48
2023-03-26T03:44:01.885Z,6.52
2023-03-26T03:46:15.129Z,6.50
2023-03-26T03:48:30.945Z,6.54
2023-03-26T03:50:40.781Z,6.53
2023-03-26T03:53:07.949Z,6.59
2023-03-26T03:55:18.546Z,6.68
2023-03-26T03:57:33.685Z,6.63
2023-03-26T03:59:47.980Z,6.49
2023-03-26T04:02:01.055Z,6.43
2023-03-26T04:04:22.264Z,6.41
2023-03-26T04:06:39.688Z,6.41
2023-03-26T04:08:50.111Z,6.42
2023-03-26T04:10:58.322Z,6.38
2023-03-26T04:13:12.227Z,6.37
2023-03-26T04:15:47.442Z,6.35
2023-03-26T04:17:58.052Z,6.39
2023-03-26T04:20:09.250Z,6.37
2023-03-26T04:22:19.682Z,6.41
2023-03-26T04:24:49.910Z,6.37
2023-03-26T04:27:19.247Z,6.43
2023-03-26T04:29:28.154Z,6.44
2023-03-26T04:31:38.522Z,6.47
2023-03-26T04:33:54.546Z,6.44
2023-03-26T04:36:05.504Z,6.42
2023-03-26T04:38:16.994Z,6.34
2023-03-26T04:40:30.778Z,6.31
2023-03-26T04:43:06.788Z,6.33
2023-03-26T04:45:35.164Z,6.31
2023-03-26T04:47:43.203Z,6.31
2023-03-26T04:49:54.109Z,6.28
2023-03-26T04:52:02.251Z,6.28
2023-03-26T04:54:39.632Z,6.30
2023-03-26T04:56:56.878Z,6.27
2023-03-26T04:59:05.553Z,6.31
2023-03-26T05:01:20.225Z,6.32
2023-03-26T05:03:31.313Z,6.34
2023-03-26T05:05:46.097Z,6.40
2023-03-26T05:07:54.628Z,6.27
2023-03-26T05:10:03.839Z,6.18
2023-03-26T05:12:18.346Z,6.25
2023-03-26T05:14:44.899Z,6.36
2023-03-26T05:17:00.971Z,6.37
2023-03-26T05:19:11.206Z,6.35
2023-03-26T05:21:22.623Z,6.36
2023-03-26T05:23:30.785Z,6.40
2023-03-26T05:25:52.159Z,6.39
2023-03-26T05:28:05.513Z,6.43
2023-03-26T05:30:27.480Z,6.37
2023-03-26T05:32:40.113Z,6.33
2023-03-26T05:34:48.753Z,6.32
2023-03-26T05:36:59.368Z,6.30
2023-03-26T05:39:31.467Z,6.31
2023-03-26T05:41:58.393Z,6.33
2023-03-26T05:44:15.645Z,6.36
2023-03-26T05:46:23.808Z,6.43
2023-03-26T05:48:31.806Z,6.36
2023-03-26T05:50:40.221Z,6.44
2023-03-26T05:52:51.720Z,6.46
2023-03-26T05:55:22.165Z,6.36
2023-03-26T05:57:51.968Z,6.28
2023-03-26T06:00:19.109Z,6.30
2023-03-26T06:02:27.317Z,6.39
2023-03-26T06:04:58.298Z,6.33
2023-03-26T06:07:28.371Z,6.21
2023-03-26T06:09:51.037Z,6.23
2023-03-26T06:11:59.204Z,6.31
2023-03-26T06:14:10.646Z,6.45
2023-03-26T06:16:26.504Z,6.47
2023-03-26T06:18:56.812Z,6.43
2023-03-26T06:21:13.905Z,6.40
2023-03-26T06:23:29.930Z,6.40
2023-03-26T06:25:51.260Z,6.41
2023-03-26T06:28:22.276Z,6.45
2023-03-26T06:30:39.266Z,6.42
2023-03-26T06:33:06.316Z,6.57
2023-03-26T06:35:21.696Z,6.55
2023-03-26T06:37:29.587Z,6.72
2023-03-26T06:39:41.602Z,6.69
2023-03-26T06:41:58.626Z,6.71
2023-03-26T06:44:26.839Z,6.82
2023-03-26T06:47:04.164Z,6.79
2023-03-26T06:49:30.691Z,6.88
2023-03-26T06:52:03.917Z,6.84
2023-03-26T06:54:38.447Z,6.91
2023-03-26T06:57:00.137Z,6.85
2023-03-26T06:59:26.584Z,6.81
2023-03-26T07:01:57.604Z,6.80
2023-03-26T07:04:24.935Z,6.87
2023-03-26T07:06:51.745Z,6.97
2023-03-26T07:09:18.440Z,6.95
2023-03-26T07:11:46.836Z,7.01
2023-03-26T07:13:57.712Z,7.05
2023-03-26T07:16:24.116Z,7.16
2023-03-26T07:18:55.613Z,7.26
2023-03-26T07:21:08.476Z,7.30
2023-03-26T07:23:20.368Z,7.16
2023-03-26T07:25:47.625Z,7.12
2023-03-26T07:28:14.729Z,7.10
2023-03-26T07:30:52.181Z,7.20
2023-03-26T07:33:24.846Z,7.19
2023-03-26T07:35:49.540Z,7.10
2023-03-26T07:38:41.537Z,7.02
2023-03-26T07:41:16.662Z,7.06
2023-03-26T07:43:57.670Z,6.98
2023-03-26T07:46:36.312Z,6.96
2023-03-26T07:49:18.105Z,6.83
2023-03-26T07:51:55.245Z,6.72
2023-03-26T07:54:24.848Z,6.76
2023-03-26T07:56:59.919Z,6.80
2023-03-26T07:59:37.307Z,6.81
2023-03-26T08:02:49.749Z,6.81
2023-03-26T08:05:26.570Z,6.91
2023-03-26T08:08:11.768Z,6.87
2023-03-26T08:10:34.762Z,6.85
2023-03-26T08:12:56.198Z,6.80
2023-03-26T08:15:09.762Z,6.85
2023-03-26T08:17:27.640Z,6.68
2023-03-26T08:20:00.268Z,6.64
2023-03-26T08:22:16.984Z,6.66
2023-03-26T08:24:35.032Z,6.54
2023-03-26T08:26:51.536Z,6.53
2023-03-26T08:29:10.272Z,6.53
2023-03-26T08:31:19.642Z,6.64
2023-03-26T08:33:30.429Z,6.67
2023-03-26T08:35:42.793Z,6.71
2023-03-26T08:37:52.102Z,6.69
2023-03-26T08:40:00.112Z,6.68
2023-03-26T08:42:37.670Z,6.61
2023-03-26T08:45:28.874Z,6.71
2023-03-26T08:48:18.071Z,6.67
2023-03-26T08:50:51.708Z,6.90
2023-03-26T08:53:32.498Z,7.01
2023-03-26T08:56:13.136Z,7.07
2023-03-26T08:58:52.660Z,7.14
2023-03-26T09:01:48.466Z,7.18
2023-03-26T09:04:22.314Z,7.37
2023-03-26T09:07:00.736Z,7.56
2023-03-26T09:09:34.940Z,7.60
2023-03-26T09:12:11.107Z,7.68
2023-03-26T09:14:48.631Z,8.07
2023-03-26T09:17:36.963Z,8.56
2023-03-26T09:20:22.078Z,8.84
2023-03-26T09:23:03.011Z,9.09
2023-03-26T09:25:29.252Z,9.11
2023-03-26T09:27:43.030Z,9.06
2023-03-26T09:30:19.957Z,9.34
2023-03-26T09:32:54.529Z,9.50
2023-03-26T09:35:16.829Z,9.71
2023-03-26T09:37:32.536Z,9.93
2023-03-26T09:39:54.337Z,10.02
2023-03-26T09:42:20.356Z,10.41
2023-03-26T09:45:13.174Z,11.13
2023-03-26T09:47:53.669Z,11.30
2023-03-26T09:50:19.134Z,12.42
2023-03-26T09:52:57.422Z,13.43
2023-03-26T09:55:32.390Z,15.20
2023-03-26T09:58:09.451Z,16.34
2023-03-26T10:00:30.593Z,17.42
2023-03-26T10:02:59.810Z,17.50
2023-03-26T10:05:30.330Z,16.30
2023-03-26T10:08:03.669Z,15.73
2023-03-26T10:10:23.455Z,15.88
2023-03-26T10:12:37.683Z,15.22
2023-03-26T10:14:57.857Z,15.06
2023-03-26T10:17:15.699Z,14.94
2023-03-26T10:19:39.835Z,13.77
2023-03-26T10:21:55.508Z,13.39
2023-03-26T10:24:19.861Z,12.83
2023-03-26T10:27:08.573Z,12.90
2023-03-26T10:29:29.386Z,12.79
2023-03-26T10:31:51.758Z,12.48
2023-03-26T10:34:28.556Z,13.95
2023-03-26T10:36:39.787Z,16.57
2023-03-26T10:39:03.975Z,16.21
2023-03-26T10:41:20.985Z,16.02
2023-03-26T10:44:08.566Z,15.54
2023-03-26T10:46:39.270Z,15.43
2023-03-26T10:49:22.880Z,15.14
2023-03-26T10:51:53.647Z,14.94
2023-03-26T10:54:11.360Z,14.99
2023-03-26T10:56:26.364Z,15.80
2023-03-26T10:58:49.777Z,15.83
2023-03-26T11:01:06.126Z,15.36
2023-03-26T11:03:42.059Z,15.48
2023-03-26T11:05:56.071Z,14.73
2023-03-26T11:08:13.668Z,14.17
2023-03-26T11:10:31.424Z,14.14
2023-03-26T11:12:46.016Z,13.70
2023-03-26T11:14:59.611Z,13.57
2023-03-26T11:17:39.694Z,13.94
2023-03-26T11:19:54.341Z,14.36
2023-03-26T11:22:08.790Z,14.81
2023-03-26T11:24:44.932Z,14.96
2023-03-26T11:26:56.539Z,14.80
2023-03-26T11:29:32.854Z,14.53
2023-03-26T11:31:55.290Z,14.07
2023-03-26T11:34:09.573Z,13.77
2023-03-26T11:36:22.930Z,13.89
2023-03-26T11:38:37.832Z,13.88
2023-03-26T11:40:56.184Z,13.76
2023-03-26T11:43:29.302Z,13.23
2023-03-26T11:45:40.993Z,13.27
2023-03-26T11:47:53.044Z,13.23
2023-03-26T11:50:03.897Z,13.14
2023-03-26T11:52:15.938Z,13.53
2023-03-26T11:54:24.057Z,13.89
2023-03-26T11:56:39.705Z,13.95
2023-03-26T11:58:54.433Z,13.99
2023-03-26T12:01:07.714Z,14.51
2023-03-26T12:03:21.008Z,14.42
2023-03-26T12:05:36.780Z,14.38
2023-03-26T12:07:51.329Z,14.29
2023-03-26T12:10:18.475Z,14.72
2023-03-26T12:12:34.503Z,14.36
2023-03-26T12:14:46.155Z,13.99
2023-03-26T12:17:03.427Z,14.01
2023-03-26T12:19:24.841Z,13.98
2023-03-26T12:21:33.040Z,13.87
2023-03-26T12:24:00.458Z,13.58
2023-03-26T12:26:17.563Z,13.48
2023-03-26T12:28:35.115Z,13.96
2023-03-26T12:30:45.547Z,14.06
2023-03-26T12:32:55.497Z,14.07
2023-03-26T12:35:08.405Z,13.85
2023-03-26T12:37:43.478Z,13.99
2023-03-26T12:40:10.011Z,14.29
2023-03-26T12:44:52.814Z,14.30
2023-03-26T12:45:04.059Z,14.43
2023-03-26T12:47:59.993Z,14.23
2023-03-26T12:49:48.135Z,14.25
2023-03-26T12:52:08.198Z,14.33
2023-03-26T12:54:29.130Z,14.33
2023-03-26T12:57:12.464Z,14.42
2023-03-26T12:59:35.356Z,14.32
2023-03-26T13:01:57.355Z,14.39
2023-03-26T13:04:34.412Z,14.54
2023-03-26T13:07:00.861Z,14.70
2023-03-26T13:09:25.560Z,15.20
2023-03-26T13:11:43.675Z,15.22
2023-03-26T13:14:23.798Z,15.45
2023-03-26T13:16:40.069Z,16.01
2023-03-26T13:18:57.368Z,15.75
2023-03-26T13:21:13.777Z,15.49
2023-03-26T13:23:36.757Z,15.67
2023-03-26T13:25:55.357Z,15.79
2023-03-26T13:28:18.063Z,15.91
2023-03-26T13:30:35.329Z,15.56
2023-03-26T13:32:59.360Z,15.21
2023-03-26T13:35:30.568Z,14.66
2023-03-26T13:37:57.765Z,14.78
2023-03-26T13:40:25.738Z,15.14
2023-03-26T13:42:47.957Z,15.28
2023-03-26T13:45:06.048Z,15.44
2023-03-26T13:47:19.758Z,15.30
2023-03-26T13:49:37.549Z,15.25
2023-03-26T13:51:51.589Z,14.69
2023-03-26T13:54:04.343Z,14.70
2023-03-26T13:56:18.389Z,14.27
2023-03-26T13:58:34.617Z,14.28
2023-03-26T14:00:56.231Z,13.90
2023-03-26T14:03:11.319Z,14.03
2023-03-26T14:05:26.905Z,13.83
2023-03-26T14:07:46.188Z,13.67
2023-03-26T14:09:57.870Z,13.52
2023-03-26T14:12:23.702Z,13.38
2023-03-26T14:14:39.878Z,13.58
2023-03-26T14:16:53.886Z,13.53
2023-03-26T14:19:18.252Z,13.71
2023-03-26T14:21:40.118Z,13.40
2023-03-26T14:24:15.678Z,12.98
2023-03-26T14:26:36.183Z,12.50
2023-03-26T14:29:23.910Z,12.17
2023-03-26T14:31:39.339Z,12.06
2023-03-26T14:34:06.567Z,11.67
2023-03-26T14:36:26.096Z,11.28
2023-03-26T14:38:56.879Z,10.61
2023-03-26T14:41:26.412Z,9.98
2023-03-26T14:43:58.238Z,9.68
2023-03-26T14:46:17.172Z,9.41
2023-03-26T14:48:53.565Z,9.07
2023-03-26T14:51:15.741Z,8.86
2023-03-26T14:53:33.661Z,8.77
2023-03-26T14:56:14.384Z,8.77
2023-03-26T14:59:03.598Z,8.87
2023-03-26T15:01:28.277Z,9.05
2023-03-26T15:04:06.486Z,9.08
2023-03-26T15:06:51.788Z,9.15
2023-03-26T15:09:42.751Z,9.33
2023-03-26T15:12:12.575Z,9.52
2023-03-26T15:15:04.464Z,9.54
2023-03-26T15:17:42.470Z,9.64
2023-03-26T15:20:15.165Z,9.80
2023-03-26T15:22:45.235Z,9.93
2023-03-26T15:25:41.111Z,9.78
2023-03-26T15:28:32.148Z,9.80
2023-03-26T15:31:26.498Z,9.70
2023-03-26T15:34:12.428Z,9.67
2023-03-26T15:36:43.251Z,9.52
2023-03-26T15:39:38.214Z,9.30
2023-03-26T15:41:53.728Z,9.38
2023-03-26T15:44:28.479Z,9.31
2023-03-26T15:47:02.483Z,9.18
2023-03-26T15:49:19.709Z,8.73
2023-03-26T15:51:54.109Z,8.41
2023-03-26T15:54:09.592Z,8.11
2023-03-26T15:56:29.870Z,8.07
2023-03-26T15:58:49.060Z,8.03
2023-03-26T16:01:08.282Z,8.08
2023-03-26T16:03:27.768Z,7.97
2023-03-26T16:05:50.153Z,7.89
2023-03-26T16:08:11.081Z,7.94
2023-03-26T16:10:30.108Z,7.67
2023-03-26T16:12:48.821Z,7.69
2023-03-26T16:15:23.171Z,7.65
2023-03-26T16:17:32.387Z,7.70
2023-03-26T16:19:52.287Z,7.59
2023-03-26T16:22:06.146Z,7.63
2023-03-26T16:24:37.368Z,7.63
2023-03-26T16:27:05.122Z,7.56
2023-03-26T16:29:22.482Z,7.71
2023-03-26T16:31:38.178Z,7.64
2023-03-26T16:33:53.757Z,7.61
2023-03-26T16:36:31.496Z,7.60
2023-03-26T16:39:14.738Z,7.52
2023-03-26T16:41:26.673Z,7.32
2023-03-26T16:44:05.128Z,7.26
2023-03-26T16:46:23.795Z,7.11
2023-03-26T16:48:38.427Z,7.14
2023-03-26T16:50:55.032Z,7.12
2023-03-26T16:53:18.711Z,7.17
2023-03-26T16:55:38.594Z,7.11
2023-03-26T16:57:53.272Z,6.99
2023-03-26T17:00:24.616Z,6.92
2023-03-26T17:02:37.182Z,6.96
2023-03-26T17:04:49.079Z,7.03
2023-03-26T17:07:08.969Z,6.99
2023-03-26T17:09:26.717Z,7.09
2023-03-26T17:11:51.197Z,7.07
2023-03-26T17:14:09.012Z,7.18
2023-03-26T17:16:25.103Z,7.10
2023-03-26T17:18:46.587Z,7.06
2023-03-26T17:21:03.543Z,7.01
2023-03-26T17:23:26.632Z,6.90
2023-03-26T17:25:40.653Z,6.84
2023-03-26T17:28:27.753Z,6.92
2023-03-26T17:30:50.795Z,6.90
2023-03-26T17:33:01.999Z,6.84
2023-03-26T17:35:13.868Z,6.86
2023-03-26T17:37:35.198Z,6.82
2023-03-26T17:40:18.842Z,6.76
2023-03-26T17:42:33.042Z,6.72
2023-03-26T17:44:58.918Z,6.74
2023-03-26T17:47:13.729Z,6.73
2023-03-26T17:49:27.496Z,6.76
2023-03-26T17:51:45.501Z,6.74
2023-03-26T17:53:54.427Z,6.63
2023-03-26T17:56:06.658Z,6.56
2023-03-26T17:58:27.258Z,6.51
2023-03-26T18:00:42.745Z,6.60
2023-03-26T18:02:56.494Z,6.49
2023-03-26T18:05:08.218Z,6.43
2023-03-26T18:07:38.337Z,6.45
2023-03-26T18:10:02.196Z,6.41
2023-03-26T18:12:33.511Z,6.37
2023-03-26T18:14:59.877Z,6.44
2023-03-26T18:17:10.829Z,6.48
2023-03-26T18:19:23.268Z,6.41
2023-03-26T18:21:36.199Z,6.30
2023-03-26T18:23:50.788Z,6.40
2023-03-26T18:26:02.441Z,6.44
2023-03-26T18:28:10.616Z,6.34
2023-03-26T18:30:20.864Z,6.32
2023-03-26T18:32:34.064Z,6.37
2023-03-26T18:34:50.146Z,6.35
2023-03-26T18:37:15.718Z,6.57
2023-03-26T18:39:23.995Z,6.53
2023-03-26T18:41:37.523Z,6.46
2023-03-26T18:43:45.964Z,6.36
2023-03-26T18:45:57.090Z,6.43
2023-03-26T18:48:10.686Z,6.56
2023-03-26T18:50:22.186Z,6.58
2023-03-26T18:52:32.836Z,6.49
2023-03-26T18:54:40.926Z,6.53
2023-03-26T18:56:52.574Z,6.53
2023-03-26T18:59:03.021Z,6.47
2023-03-26T19:01:20.422Z,6.56
2023-03-26T19:03:39.919Z,6.57
2023-03-26T19:05:48.413Z,6.62
2023-03-26T19:07:56.492Z,6.49
2023-03-26T19:10:05.155Z,6.44
2023-03-26T19:12:20.577Z,6.41
2023-03-26T19:14:29.195Z,6.43
2023-03-26T19:16:43.737Z,6.53
2023-03-26T19:19:01.427Z,6.45
2023-03-26T19:21:10.866Z,6.39
2023-03-26T19:23:22.490Z,6.46
2023-03-26T19:25:34.460Z,6.34
2023-03-26T19:27:42.626Z,6.22
2023-03-26T19:29:50.825Z,6.23
2023-03-26T19:32:05.295Z,6.22
2023-03-26T19:34:28.098Z,6.25
2023-03-26T19:36:37.360Z,6.13
2023-03-26T19:38:47.309Z,6.08
2023-03-26T19:40:58.114Z,6.27
2023-03-26T19:43:06.710Z,6.15
2023-03-26T19:45:19.828Z,6.21
2023-03-26T19:47:46.204Z,6.54
2023-03-26T19:50:04.512Z,6.38
2023-03-26T19:52:17.990Z,6.42
2023-03-26T19:54:25.922Z,6.37
2023-03-26T19:56:34.593Z,6.37
2023-03-26T19:58:43.239Z,6.33
2023-03-26T20:00:51.174Z,6.30
2023-03-26T20:02:59.363Z,6.21
2023-03-26T20:05:23.202Z,6.01
2023-03-26T20:07:35.276Z,5.97
2023-03-26T20:09:45.700Z,5.81
2023-03-26T20:11:54.517Z,5.72
2023-03-26T20:14:03.648Z,5.71
2023-03-26T20:16:18.653Z,5.75
2023-03-26T20:18:27.760Z,5.61
2023-03-26T20:20:39.342Z,5.62
2023-03-26T20:22:49.806Z,5.68
2023-03-26T20:24:57.836Z,5.69
2023-03-26T20:27:05.905Z,5.78
2023-03-26T20:29:14.142Z,5.78
2023-03-26T20:31:25.378Z,5.91
2023-03-26T20:33:35.306Z,5.90
2023-03-26T20:35:55.392Z,5.79
2023-03-26T20:38:11.355Z,5.75
2023-03-26T20:40:23.973Z,5.68
2023-03-26T20:42:41.852Z,5.67
2023-03-26T20:44:55.077Z,5.56
2023-03-26T20:47:03.039Z,5.56
2023-03-26T20:49:11.231Z,5.58
2023-03-26T20:51:22.990Z,5.65
2023-03-26T20:53:30.948Z,5.66
2023-03-26T20:55:38.944Z,5.44
2023-03-26T20:57:48.083Z,5.41
2023-03-26T20:59:57.002Z,5.42
2023-03-26T21:02:04.928Z,5.30
2023-03-26T21:04:12.915Z,5.18
2023-03-26T21:06:23.440Z,4.96
2023-03-26T21:08:37.393Z,4.95
2023-03-26T21:10:46.519Z,5.15
2023-03-26T21:13:00.620Z,5.22
2023-03-26T21:15:22.354Z,5.13
2023-03-26T21:17:32.357Z,5.28
2023-03-26T21:19:40.841Z,5.34
2023-03-26T21:21:59.480Z,5.41
2023-03-26T21:24:15.214Z,5.38
2023-03-26T21:26:32.730Z,5.32
2023-03-26T21:28:47.902Z,5.37
2023-03-26T21:30:57.278Z,5.41
2023-03-26T21:33:05.603Z,5.39
2023-03-26T21:35:16.557Z,5.54
2023-03-26T21:37:28.622Z,5.52
2023-03-26T21:39:37.453Z,5.38
2023-03-26T21:42:05.304Z,5.54
2023-03-26T21:44:14.544Z,5.63
2023-03-26T21:46:23.381Z,5.61
2023-03-26T21:48:32.346Z,5.62
2023-03-26T21:50:41.287Z,5.50
2023-03-26T21:52:53.418Z,5.52
2023-03-26T21:55:08.193Z,5.39
2023-03-26T21:57:34.160Z,5.48
2023-03-26T21:59:49.530Z,5.52
2023-03-26T22:02:04.910Z,5.50
2023-03-26T22:04:18.288Z,5.48
2023-03-26T22:06:33.007Z,5.36
2023-03-26T22:08:45.064Z,5.43
2023-03-26T22:10:53.131Z,5.45
2023-03-26T22:13:01.930Z,5.51
2023-03-26T22:15:14.055Z,5.49
2023-03-26T22:17:22.730Z,5.32
2023-03-26T22:19:31.027Z,5.65
2023-03-26T22:21:39.316Z,5.59
2023-03-26T22:23:52.929Z,5.63
2023-03-26T22:26:00.809Z,5.52
2023-03-26T22:28:09.688Z,5.53
2023-03-26T22:30:19.075Z,5.60
2023-03-26T22:32:27.095Z,5.46
2023-03-26T22:34:41.630Z,5.48
2023-03-26T22:36:49.721Z,5.50
2023-03-26T22:39:00.431Z,5.62
2023-03-26T22:41:09.424Z,5.56
2023-03-26T22:43:17.468Z,5.65
2023-03-26T22:45:26.324Z,5.64
2023-03-26T22:47:35.586Z,5.75
2023-03-26T22:49:43.560Z,5.74
2023-03-26T22:51:51.783Z,5.60
2023-03-26T22:54:02.465Z,5.68
2023-03-26T22:56:11.804Z,5.60
2023-03-26T22:58:21.563Z,5.53
2023-03-26T23:00:29.643Z,5.54
2023-03-26T23:02:37.812Z,5.66
2023-03-26T23:04:46.580Z,5.60
2023-03-26T23:06:55.243Z,5.71
2023-03-26T23:09:07.283Z,5.67
2023-03-26T23:11:17.156Z,5.64
2023-03-26T23:13:25.210Z,5.72
2023-03-26T23:15:33.352Z,5.52
2023-03-26T23:17:41.585Z,5.54
2023-03-26T23:19:49.696Z,5.55
2023-03-26T23:21:57.625Z,5.51
2023-03-26T23:24:09.373Z,5.49
2023-03-26T23:26:17.454Z,5.66
2023-03-26T23:28:25.297Z,5.62
2023-03-26T23:30:34.230Z,5.64
2023-03-26T23:32:42.357Z,5.71
2023-03-26T23:34:51.937Z,5.75
2023-03-26T23:37:01.049Z,5.80
2023-03-26T23:39:11.878Z,5.75
2023-03-26T23:41:22.217Z,5.69
2023-03-26T23:43:30.117Z,5.68
2023-03-26T23:45:38.065Z,5.72
2023-03-26T23:47:46.926Z,5.67
2023-03-26T23:49:56.726Z,5.78
2023-03-26T23:52:04.669Z,5.73
2023-03-26T23:54:15.415Z,5.77
2023-03-26T23:56:23.843Z,5.80
2023-03-26T23:58:32.935Z,5.73
